sensor_id;sensor_type;location;lat;lon;timestamp;pressure;altitude;pressure_sealevel;temperature;humidity
37066;BME280;22981;43.080;25.550;2024-03-17T00:00:28;99940.80;;;7.64;73.72
37066;BME280;22981;43.080;25.550;2024-03-17T00:02:56;99939.73;;;7.58;73.79
37066;BME280;22981;43.080;25.550;2024-03-17T00:05:24;99947.32;;;7.50;73.91
37066;BME280;22981;43.080;25.550;2024-03-17T00:07:51;99949.44;;;7.40;74.06
37066;BME280;22981;43.080;25.550;2024-03-17T00:10:19;99944.10;;;7.30;74.36
37066;BME280;22981;43.080;25.550;2024-03-17T00:12:46;99943.89;;;7.20;74.71
37066;BME280;22981;43.080;25.550;2024-03-17T00:15:14;99939.75;;;7.18;74.89
37066;BME280;22981;43.080;25.550;2024-03-17T00:17:41;99941.23;;;7.20;75.03
37066;BME280;22981;43.080;25.550;2024-03-17T00:20:10;99938.31;;;7.26;74.99
37066;BME280;22981;43.080;25.550;2024-03-17T00:22:40;99944.10;;;7.30;74.92
37066;BME280;22981;43.080;25.550;2024-03-17T00:25:08;99934.22;;;7.34;74.82
37066;BME280;22981;43.080;25.550;2024-03-17T00:27:36;99936.01;;;7.38;74.71
37066;BME280;22981;43.080;25.550;2024-03-17T00:30:06;99936.63;;;7.40;74.62
37066;BME280;22981;43.080;25.550;2024-03-17T00:32:42;99932.78;;;7.42;74.55
37066;BME280;22981;43.080;25.550;2024-03-17T00:35:10;99939.44;;;7.42;74.50
37066;BME280;22981;43.080;25.550;2024-03-17T00:37:40;99929.09;;;7.43;74.56
37066;BME280;22981;43.080;25.550;2024-03-17T00:40:07;99924.22;;;7.47;74.50
37066;BME280;22981;43.080;25.550;2024-03-17T00:42:38;99932.21;;;7.47;74.41
37066;BME280;22981;43.080;25.550;2024-03-17T00:45:05;99933.20;;;7.35;74.40
37066;BME280;22981;43.080;25.550;2024-03-17T00:47:33;99938.22;;;7.19;74.74
37066;BME280;22981;43.080;25.550;2024-03-17T00:50:01;99930.80;;;7.15;75.12
37066;BME280;22981;43.080;25.550;2024-03-17T00:52:30;99927.09;;;7.20;75.14
37066;BME280;22981;43.080;25.550;2024-03-17T00:54:59;99935.97;;;7.27;75.00
37066;BME280;22981;43.080;25.550;2024-03-17T00:57:27;99937.25;;;7.31;74.82
37066;BME280;22981;43.080;25.550;2024-03-17T00:59:55;99934.17;;;7.23;74.89
37066;BME280;22981;43.080;25.550;2024-03-17T01:02:23;99940.45;;;7.16;75.07
37066;BME280;22981;43.080;25.550;2024-03-17T01:04:50;99936.31;;;7.13;75.24
37066;BME280;22981;43.080;25.550;2024-03-17T01:07:18;99932.13;;;7.15;75.27
37066;BME280;22981;43.080;25.550;2024-03-17T01:09:47;99940.41;;;7.20;75.18
37066;BME280;22981;43.080;25.550;2024-03-17T01:12:15;99935.34;;;7.25;75.06
37066;BME280;22981;43.080;25.550;2024-03-17T01:14:42;99937.95;;;7.29;74.97
37066;BME280;22981;43.080;25.550;2024-03-17T01:17:10;99935.91;;;7.31;74.92
37066;BME280;22981;43.080;25.550;2024-03-17T01:19:37;99933.08;;;7.33;74.91
37066;BME280;22981;43.080;25.550;2024-03-17T01:22:05;99936.38;;;7.35;74.89
37066;BME280;22981;43.080;25.550;2024-03-17T01:24:33;99934.84;;;7.36;74.87
37066;BME280;22981;43.080;25.550;2024-03-17T01:27:01;99929.86;;;7.37;74.82
37066;BME280;22981;43.080;25.550;2024-03-17T01:29:28;99923.31;;;7.29;74.90
37066;BME280;22981;43.080;25.550;2024-03-17T01:31:56;99928.73;;;7.21;75.06
37066;BME280;22981;43.080;25.550;2024-03-17T01:34:23;99920.39;;;7.09;75.32
37066;BME280;22981;43.080;25.550;2024-03-17T01:36:51;99919.31;;;7.03;75.62
37066;BME280;22981;43.080;25.550;2024-03-17T01:39:18;99918.60;;;7.06;75.71
37066;BME280;22981;43.080;25.550;2024-03-17T01:41:47;99915.89;;;7.10;75.62
37066;BME280;22981;43.080;25.550;2024-03-17T01:44:26;99918.38;;;7.11;75.57
37066;BME280;22981;43.080;25.550;2024-03-17T01:46:55;99919.20;;;7.12;75.52
37066;BME280;22981;43.080;25.550;2024-03-17T01:49:23;99916.86;;;7.13;75.43
37066;BME280;22981;43.080;25.550;2024-03-17T01:51:53;99925.86;;;7.12;75.43
37066;BME280;22981;43.080;25.550;2024-03-17T01:54:22;99922.86;;;7.11;75.39
37066;BME280;22981;43.080;25.550;2024-03-17T01:56:49;99920.20;;;7.11;75.42
37066;BME280;22981;43.080;25.550;2024-03-17T01:59:17;99920.20;;;7.11;75.42
37066;BME280;22981;43.080;25.550;2024-03-17T02:01:45;99921.61;;;7.07;75.44
37066;BME280;22981;43.080;25.550;2024-03-17T02:04:12;99921.97;;;7.03;75.49
37066;BME280;22981;43.080;25.550;2024-03-17T02:06:40;99921.97;;;7.03;75.50
37066;BME280;22981;43.080;25.550;2024-03-17T02:09:08;99922.13;;;7.02;75.49
37066;BME280;22981;43.080;25.550;2024-03-17T02:11:36;99921.66;;;7.02;75.47
37066;BME280;22981;43.080;25.550;2024-03-17T02:14:03;99932.16;;;7.00;75.50
37066;BME280;22981;43.080;25.550;2024-03-17T02:16:33;99926.52;;;6.99;75.53
37066;BME280;22981;43.080;25.550;2024-03-17T02:19:00;99924.84;;;6.98;75.51
37066;BME280;22981;43.080;25.550;2024-03-17T02:21:28;99922.73;;;6.93;75.47
37066;BME280;22981;43.080;25.550;2024-03-17T02:23:56;99931.48;;;6.87;75.67
37066;BME280;22981;43.080;25.550;2024-03-17T02:26:25;99931.20;;;6.82;75.75
37066;BME280;22981;43.080;25.550;2024-03-17T02:28:53;99926.24;;;6.79;75.76
37066;BME280;22981;43.080;25.550;2024-03-17T02:31:21;99924.77;;;6.76;75.79
37066;BME280;22981;43.080;25.550;2024-03-17T02:33:48;99927.81;;;6.73;75.79
37066;BME280;22981;43.080;25.550;2024-03-17T02:36:16;99927.97;;;6.72;75.80
37066;BME280;22981;43.080;25.550;2024-03-17T02:38:43;99925.51;;;6.70;75.77
37066;BME280;22981;43.080;25.550;2024-03-17T02:41:29;99917.57;;;6.66;75.76
37066;BME280;22981;43.080;25.550;2024-03-17T02:43:56;99919.25;;;6.63;75.71
37066;BME280;22981;43.080;25.550;2024-03-17T02:46:24;99918.12;;;6.62;75.73
37066;BME280;22981;43.080;25.550;2024-03-17T02:48:53;99916.98;;;6.60;75.74
37066;BME280;22981;43.080;25.550;2024-03-17T02:51:22;99909.05;;;6.56;75.62
37066;BME280;22981;43.080;25.550;2024-03-17T02:53:50;99914.25;;;6.49;75.65
37066;BME280;22981;43.080;25.550;2024-03-17T02:56:18;99916.45;;;6.46;75.64
37066;BME280;22981;43.080;25.550;2024-03-17T02:58:47;99919.34;;;6.40;75.70
37066;BME280;22981;43.080;25.550;2024-03-17T03:01:16;99919.19;;;6.38;75.73
37066;BME280;22981;43.080;25.550;2024-03-17T03:03:43;99918.36;;;6.37;75.65
37066;BME280;22981;43.080;25.550;2024-03-17T03:06:11;99928.05;;;6.34;75.65
37066;BME280;22981;43.080;25.550;2024-03-17T03:08:40;99932.39;;;6.31;75.65
37066;BME280;22981;43.080;25.550;2024-03-17T03:11:10;99931.41;;;6.28;75.57
37066;BME280;22981;43.080;25.550;2024-03-17T03:13:40;99930.13;;;6.24;75.57
37066;BME280;22981;43.080;25.550;2024-03-17T03:16:09;99928.36;;;6.16;75.63
37066;BME280;22981;43.080;25.550;2024-03-17T03:18:37;99931.05;;;6.12;75.65
37066;BME280;22981;43.080;25.550;2024-03-17T03:21:10;99937.09;;;6.06;75.75
37066;BME280;22981;43.080;25.550;2024-03-17T03:23:39;99937.79;;;6.04;75.79
37066;BME280;22981;43.080;25.550;2024-03-17T03:26:06;99941.11;;;6.02;75.77
37066;BME280;22981;43.080;25.550;2024-03-17T03:28:35;99942.28;;;5.99;75.78
37066;BME280;22981;43.080;25.550;2024-03-17T03:31:03;99940.32;;;5.97;75.76
37066;BME280;22981;43.080;25.550;2024-03-17T03:33:31;99941.99;;;5.94;75.77
37066;BME280;22981;43.080;25.550;2024-03-17T03:35:59;99944.02;;;5.92;75.78
37066;BME280;22981;43.080;25.550;2024-03-17T03:38:26;99939.53;;;5.93;75.80
37066;BME280;22981;43.080;25.550;2024-03-17T03:40:54;99945.34;;;5.92;75.73
37066;BME280;22981;43.080;25.550;2024-03-17T03:43:21;99946.36;;;5.87;75.81
37066;BME280;22981;43.080;25.550;2024-03-17T03:45:49;99945.19;;;5.86;75.77
37066;BME280;22981;43.080;25.550;2024-03-17T03:48:16;99951.32;;;5.86;75.73
37066;BME280;22981;43.080;25.550;2024-03-17T03:50:44;99953.16;;;5.86;75.60
37066;BME280;22981;43.080;25.550;2024-03-17T03:53:12;99949.75;;;5.73;75.47
37066;BME280;22981;43.080;25.550;2024-03-17T03:55:39;99947.34;;;5.63;75.67
37066;BME280;22981;43.080;25.550;2024-03-17T03:58:08;99953.34;;;5.61;75.65
37066;BME280;22981;43.080;25.550;2024-03-17T04:00:35;99956.34;;;5.58;75.71
37066;BME280;22981;43.080;25.550;2024-03-17T04:03:05;99958.99;;;5.58;75.65
37066;BME280;22981;43.080;25.550;2024-03-17T04:05:33;99959.50;;;5.58;75.63
37066;BME280;22981;43.080;25.550;2024-03-17T04:08:01;99958.48;;;5.59;75.59
37066;BME280;22981;43.080;25.550;2024-03-17T04:10:28;99957.16;;;5.59;75.49
37066;BME280;22981;43.080;25.550;2024-03-17T04:12:56;99961.48;;;5.56;75.40
37066;BME280;22981;43.080;25.550;2024-03-17T04:15:25;99962.68;;;5.53;75.40
37066;BME280;22981;43.080;25.550;2024-03-17T04:17:52;99960.18;;;5.51;75.43
37066;BME280;22981;43.080;25.550;2024-03-17T04:20:20;99966.18;;;5.49;75.39
37066;BME280;22981;43.080;25.550;2024-03-17T04:22:47;99964.05;;;5.45;75.41
37066;BME280;22981;43.080;25.550;2024-03-17T04:25:15;99967.38;;;5.39;75.46
37066;BME280;22981;43.080;25.550;2024-03-17T04:27:43;99966.58;;;5.34;75.61
37066;BME280;22981;43.080;25.550;2024-03-17T04:30:10;99976.54;;;5.36;75.58
37066;BME280;22981;43.080;25.550;2024-03-17T04:32:38;99972.89;;;5.33;75.52
37066;BME280;22981;43.080;25.550;2024-03-17T04:35:07;99973.75;;;5.25;75.49
37066;BME280;22981;43.080;25.550;2024-03-17T04:37:34;99982.92;;;5.19;75.48
37066;BME280;22981;43.080;25.550;2024-03-17T04:40:04;99981.44;;;5.12;75.47
37066;BME280;22981;43.080;25.550;2024-03-17T04:42:33;99988.26;;;5.11;75.54
37066;BME280;22981;43.080;25.550;2024-03-17T04:45:00;99994.05;;;5.14;75.41
37066;BME280;22981;43.080;25.550;2024-03-17T04:47:28;99996.54;;;5.12;75.19
37066;BME280;22981;43.080;25.550;2024-03-17T04:49:56;99998.89;;;5.02;75.30
37066;BME280;22981;43.080;25.550;2024-03-17T04:52:23;100007.19;;;4.99;75.35
37066;BME280;22981;43.080;25.550;2024-03-17T04:54:51;100002.56;;;4.97;75.45
37066;BME280;22981;43.080;25.550;2024-03-17T04:57:18;100004.86;;;5.00;75.39
37066;BME280;22981;43.080;25.550;2024-03-17T04:59:46;100004.53;;;5.03;75.29
37066;BME280;22981;43.080;25.550;2024-03-17T05:02:13;100003.00;;;5.09;75.26
37066;BME280;22981;43.080;25.550;2024-03-17T05:04:41;100007.34;;;5.06;75.10
37066;BME280;22981;43.080;25.550;2024-03-17T05:07:08;100013.50;;;4.98;75.12
37066;BME280;22981;43.080;25.550;2024-03-17T05:09:36;100015.99;;;4.92;75.22
37066;BME280;22981;43.080;25.550;2024-03-17T05:12:04;100013.70;;;4.85;75.34
37066;BME280;22981;43.080;25.550;2024-03-17T05:14:31;100019.51;;;4.88;75.50
37066;BME280;22981;43.080;25.550;2024-03-17T05:17:00;100022.28;;;4.99;75.43
37066;BME280;22981;43.080;25.550;2024-03-17T05:19:28;100019.11;;;5.08;75.33
37066;BME280;22981;43.080;25.550;2024-03-17T05:21:55;100020.59;;;5.18;75.20
37066;BME280;22981;43.080;25.550;2024-03-17T05:24:23;100021.52;;;5.30;75.08
37066;BME280;22981;43.080;25.550;2024-03-17T05:26:50;100014.05;;;5.33;74.96
37066;BME280;22981;43.080;25.550;2024-03-17T05:29:18;100034.30;;;5.30;74.85
37066;BME280;22981;43.080;25.550;2024-03-17T05:31:45;100023.37;;;5.21;74.95
37066;BME280;22981;43.080;25.550;2024-03-17T05:34:13;100029.19;;;5.20;75.17
37066;BME280;22981;43.080;25.550;2024-03-17T05:36:41;100029.50;;;5.25;75.31
37066;BME280;22981;43.080;25.550;2024-03-17T05:39:08;100034.28;;;5.34;75.43
37066;BME280;22981;43.080;25.550;2024-03-17T05:41:36;100027.78;;;5.45;75.42
37066;BME280;22981;43.080;25.550;2024-03-17T05:44:04;100025.20;;;5.60;75.41
37066;BME280;22981;43.080;25.550;2024-03-17T05:46:31;100035.44;;;5.75;75.27
37066;BME280;22981;43.080;25.550;2024-03-17T05:48:59;100035.39;;;5.83;75.21
37066;BME280;22981;43.080;25.550;2024-03-17T05:51:26;100037.53;;;5.92;75.25
37066;BME280;22981;43.080;25.550;2024-03-17T05:53:54;100031.16;;;6.01;75.21
37066;BME280;22981;43.080;25.550;2024-03-17T05:56:23;100038.08;;;6.10;75.24
37066;BME280;22981;43.080;25.550;2024-03-17T05:58:51;100032.38;;;6.17;75.12
37066;BME280;22981;43.080;25.550;2024-03-17T06:01:19;100027.39;;;6.18;75.10
37066;BME280;22981;43.080;25.550;2024-03-17T06:03:46;100032.98;;;6.23;75.28
37066;BME280;22981;43.080;25.550;2024-03-17T06:06:14;100034.45;;;6.30;75.38
37066;BME280;22981;43.080;25.550;2024-03-17T06:08:41;100032.81;;;6.48;75.38
37066;BME280;22981;43.080;25.550;2024-03-17T06:11:09;100034.04;;;6.60;75.23
37066;BME280;22981;43.080;25.550;2024-03-17T06:13:38;100037.37;;;6.77;75.12
37066;BME280;22981;43.080;25.550;2024-03-17T06:16:05;100031.52;;;6.96;74.97
37066;BME280;22981;43.080;25.550;2024-03-17T06:18:33;100032.02;;;7.11;74.67
37066;BME280;22981;43.080;25.550;2024-03-17T06:21:00;100039.56;;;7.22;74.52
37066;BME280;22981;43.080;25.550;2024-03-17T06:23:28;100040.91;;;7.37;74.37
37066;BME280;22981;43.080;25.550;2024-03-17T06:25:55;100038.02;;;7.53;74.09
37066;BME280;22981;43.080;25.550;2024-03-17T06:28:23;100032.85;;;7.66;74.04
37066;BME280;22981;43.080;25.550;2024-03-17T06:30:57;100037.52;;;7.79;73.87
37066;BME280;22981;43.080;25.550;2024-03-17T06:33:26;100037.69;;;7.92;73.71
37066;BME280;22981;43.080;25.550;2024-03-17T06:36:01;100042.88;;;8.00;73.51
37066;BME280;22981;43.080;25.550;2024-03-17T06:38:27;100045.43;;;8.09;73.59
37066;BME280;22981;43.080;25.550;2024-03-17T06:40:55;100043.47;;;8.17;73.58
37066;BME280;22981;43.080;25.550;2024-03-17T06:43:22;100054.67;;;8.27;73.58
37066;BME280;22981;43.080;25.550;2024-03-17T06:45:57;100047.19;;;8.38;73.43
37066;BME280;22981;43.080;25.550;2024-03-17T06:48:25;100047.27;;;8.44;73.38
37066;BME280;22981;43.080;25.550;2024-03-17T06:50:54;100048.41;;;8.57;73.38
37066;BME280;22981;43.080;25.550;2024-03-17T06:53:22;100048.55;;;8.76;73.29
37066;BME280;22981;43.080;25.550;2024-03-17T06:55:58;100043.47;;;8.99;72.94
37066;BME280;22981;43.080;25.550;2024-03-17T06:58:27;100045.53;;;9.14;72.67
37066;BME280;22981;43.080;25.550;2024-03-17T07:01:00;100045.17;;;9.41;72.37
37066;BME280;22981;43.080;25.550;2024-03-17T07:03:32;100048.25;;;9.62;71.76
37066;BME280;22981;43.080;25.550;2024-03-17T07:06:00;100049.42;;;9.70;71.41
37066;BME280;22981;43.080;25.550;2024-03-17T07:08:33;100039.67;;;9.73;71.45
37066;BME280;22981;43.080;25.550;2024-03-17T07:11:06;100042.69;;;9.88;71.51
37066;BME280;22981;43.080;25.550;2024-03-17T07:13:35;100044.71;;;10.03;71.19
37066;BME280;22981;43.080;25.550;2024-03-17T07:16:04;100041.33;;;10.18;70.91
37066;BME280;22981;43.080;25.550;2024-03-17T07:18:37;100043.05;;;10.39;70.79
37066;BME280;22981;43.080;25.550;2024-03-17T07:21:05;100038.02;;;10.60;70.43
37066;BME280;22981;43.080;25.550;2024-03-17T07:23:33;100041.42;;;10.85;70.10
37066;BME280;22981;43.080;25.550;2024-03-17T07:26:01;100044.39;;;11.06;69.61
37066;BME280;22981;43.080;25.550;2024-03-17T07:28:31;100040.34;;;11.19;69.01
37066;BME280;22981;43.080;25.550;2024-03-17T07:30:59;100046.00;;;11.26;68.68
37066;BME280;22981;43.080;25.550;2024-03-17T07:33:28;100042.02;;;11.42;68.20
37066;BME280;22981;43.080;25.550;2024-03-17T07:35:57;100036.02;;;11.53;67.84
37066;BME280;22981;43.080;25.550;2024-03-17T07:38:27;100034.50;;;11.71;67.80
37066;BME280;22981;43.080;25.550;2024-03-17T07:41:06;100032.91;;;11.86;67.12
37066;BME280;22981;43.080;25.550;2024-03-17T07:43:35;100035.22;;;11.98;66.87
37066;BME280;22981;43.080;25.550;2024-03-17T07:46:06;100025.03;;;12.13;66.52
37066;BME280;22981;43.080;25.550;2024-03-17T07:48:36;100028.16;;;12.26;66.08
37066;BME280;22981;43.080;25.550;2024-03-17T07:51:06;100026.28;;;12.42;65.65
37066;BME280;22981;43.080;25.550;2024-03-17T07:53:36;100021.14;;;12.50;65.08
37066;BME280;22981;43.080;25.550;2024-03-17T07:56:06;100015.76;;;12.66;64.84
37066;BME280;22981;43.080;25.550;2024-03-17T07:58:37;100020.58;;;12.82;64.39
37066;BME280;22981;43.080;25.550;2024-03-17T08:01:12;100009.70;;;12.95;64.02
37066;BME280;22981;43.080;25.550;2024-03-17T08:03:41;100011.20;;;13.10;63.16
37066;BME280;22981;43.080;25.550;2024-03-17T08:06:11;100010.19;;;13.20;62.56
37066;BME280;22981;43.080;25.550;2024-03-17T08:08:38;100011.84;;;13.39;62.38
37066;BME280;22981;43.080;25.550;2024-03-17T08:11:06;100002.94;;;13.57;61.69
37066;BME280;22981;43.080;25.550;2024-03-17T08:13:34;100000.27;;;13.66;60.79
37066;BME280;22981;43.080;25.550;2024-03-17T08:16:03;99994.78;;;13.73;60.54
37066;BME280;22981;43.080;25.550;2024-03-17T08:18:36;99991.91;;;13.86;60.39
37066;BME280;22981;43.080;25.550;2024-03-17T08:21:04;99989.31;;;14.10;60.28
37066;BME280;22981;43.080;25.550;2024-03-17T08:23:33;99987.11;;;14.30;59.85
37066;BME280;22981;43.080;25.550;2024-03-17T08:26:02;99986.50;;;14.58;59.51
37066;BME280;22981;43.080;25.550;2024-03-17T08:28:30;99981.45;;;14.85;59.10
37066;BME280;22981;43.080;25.550;2024-03-17T08:30:59;99980.46;;;15.12;58.46
37066;BME280;22981;43.080;25.550;2024-03-17T08:33:27;99976.64;;;15.37;57.73
37066;BME280;22981;43.080;25.550;2024-03-17T08:36:03;99973.92;;;15.48;57.38
37066;BME280;22981;43.080;25.550;2024-03-17T08:38:32;99975.23;;;15.60;57.17
37066;BME280;22981;43.080;25.550;2024-03-17T08:41:04;99968.42;;;15.69;56.99
37066;BME280;22981;43.080;25.550;2024-03-17T08:43:32;99968.38;;;15.81;56.59
37066;BME280;22981;43.080;25.550;2024-03-17T08:46:05;99966.34;;;16.02;56.25
37066;BME280;22981;43.080;25.550;2024-03-17T08:48:35;99963.75;;;16.24;55.93
37066;BME280;22981;43.080;25.550;2024-03-17T08:51:04;99962.13;;;16.40;55.72
37066;BME280;22981;43.080;25.550;2024-03-17T08:53:32;99959.92;;;16.57;54.57
37066;BME280;22981;43.080;25.550;2024-03-17T08:56:02;99961.13;;;16.63;54.44
37066;BME280;22981;43.080;25.550;2024-03-17T08:58:29;99965.34;;;16.73;53.87
37066;BME280;22981;43.080;25.550;2024-03-17T09:00:57;99963.09;;;16.85;53.83
37066;BME280;22981;43.080;25.550;2024-03-17T09:03:24;99954.36;;;16.99;52.93
37066;BME280;22981;43.080;25.550;2024-03-17T09:05:53;99959.66;;;17.11;52.73
37066;BME280;22981;43.080;25.550;2024-03-17T09:08:22;99960.25;;;17.13;52.73
37066;BME280;22981;43.080;25.550;2024-03-17T09:10:51;99951.45;;;17.25;52.46
37066;BME280;22981;43.080;25.550;2024-03-17T09:13:23;99949.16;;;17.37;51.32
37066;BME280;22981;43.080;25.550;2024-03-17T09:16:01;99945.96;;;17.40;51.05
37066;BME280;22981;43.080;25.550;2024-03-17T09:18:27;99947.47;;;17.52;50.79
37066;BME280;22981;43.080;25.550;2024-03-17T09:21:05;99938.95;;;17.68;50.53
37066;BME280;22981;43.080;25.550;2024-03-17T09:23:35;99935.17;;;17.94;49.92
37066;BME280;22981;43.080;25.550;2024-03-17T09:26:09;99930.77;;;18.12;49.06
37066;BME280;22981;43.080;25.550;2024-03-17T09:28:44;99930.30;;;18.23;48.83
37066;BME280;22981;43.080;25.550;2024-03-17T09:31:12;99927.62;;;18.25;48.39
37066;BME280;22981;43.080;25.550;2024-03-17T09:33:39;99929.24;;;18.26;48.48
37066;BME280;22981;43.080;25.550;2024-03-17T09:36:09;99921.45;;;18.35;48.18
37066;BME280;22981;43.080;25.550;2024-03-17T09:38:40;99922.96;;;18.56;47.35
37066;BME280;22981;43.080;25.550;2024-03-17T09:41:11;99913.47;;;18.58;47.00
37066;BME280;22981;43.080;25.550;2024-03-17T09:43:39;99913.17;;;18.52;46.72
37066;BME280;22981;43.080;25.550;2024-03-17T09:46:06;99917.32;;;18.65;46.02
37066;BME280;22981;43.080;25.550;2024-03-17T09:48:35;99904.38;;;18.74;45.93
37066;BME280;22981;43.080;25.550;2024-03-17T09:51:03;99905.33;;;19.00;45.82
37066;BME280;22981;43.080;25.550;2024-03-17T09:53:35;99906.16;;;19.04;45.35
37066;BME280;22981;43.080;25.550;2024-03-17T09:56:13;99898.86;;;19.07;45.42
37066;BME280;22981;43.080;25.550;2024-03-17T09:58:48;99904.02;;;19.08;45.04
37066;BME280;22981;43.080;25.550;2024-03-17T10:01:17;99899.40;;;19.09;44.71
37066;BME280;22981;43.080;25.550;2024-03-17T10:03:49;99899.16;;;19.18;44.10
37066;BME280;22981;43.080;25.550;2024-03-17T10:06:22;99896.19;;;19.14;43.95
37066;BME280;22981;43.080;25.550;2024-03-17T10:08:52;99896.08;;;18.96;44.13
37066;BME280;22981;43.080;25.550;2024-03-17T10:11:25;99893.33;;;18.86;44.43
37066;BME280;22981;43.080;25.550;2024-03-17T10:14:04;99892.54;;;18.46;44.54
37066;BME280;22981;43.080;25.550;2024-03-17T10:16:33;99891.80;;;17.89;44.96
37066;BME280;22981;43.080;25.550;2024-03-17T10:19:14;99890.91;;;17.81;45.08
37066;BME280;22981;43.080;25.550;2024-03-17T10:21:43;99888.42;;;18.06;45.27
37066;BME280;22981;43.080;25.550;2024-03-17T10:24:21;99889.80;;;18.43;44.95
37066;BME280;22981;43.080;25.550;2024-03-17T10:26:50;99887.56;;;18.75;44.58
37066;BME280;22981;43.080;25.550;2024-03-17T10:29:29;99881.41;;;18.92;43.45
37066;BME280;22981;43.080;25.550;2024-03-17T10:32:02;99883.88;;;18.96;42.71
37066;BME280;22981;43.080;25.550;2024-03-17T10:34:31;99885.54;;;19.05;42.10
37066;BME280;22981;43.080;25.550;2024-03-17T10:37:10;99881.20;;;19.04;42.25
37066;BME280;22981;43.080;25.550;2024-03-17T10:39:40;99884.19;;;19.03;42.15
37066;BME280;22981;43.080;25.550;2024-03-17T10:42:09;99872.50;;;18.99;42.20
37066;BME280;22981;43.080;25.550;2024-03-17T10:44:39;99874.44;;;19.09;41.82
37066;BME280;22981;43.080;25.550;2024-03-17T10:47:11;99865.25;;;19.20;40.75
37066;BME280;22981;43.080;25.550;2024-03-17T10:49:38;99870.16;;;19.23;40.96
37066;BME280;22981;43.080;25.550;2024-03-17T10:52:08;99864.44;;;19.22;40.50
37066;BME280;22981;43.080;25.550;2024-03-17T10:54:36;99867.41;;;19.18;40.68
37066;BME280;22981;43.080;25.550;2024-03-17T10:59:53;99861.51;;;19.37;40.69
37066;BME280;22981;43.080;25.550;2024-03-17T11:02:24;99858.53;;;19.41;40.29
37066;BME280;22981;43.080;25.550;2024-03-17T11:04:58;99850.09;;;19.40;40.66
37066;BME280;22981;43.080;25.550;2024-03-17T11:07:22;99853.65;;;19.45;40.54
37066;BME280;22981;43.080;25.550;2024-03-17T11:09:53;99851.20;;;19.51;40.36
37066;BME280;22981;43.080;25.550;2024-03-17T11:12:42;99860.73;;;19.54;39.96
37066;BME280;22981;43.080;25.550;2024-03-17T11:17:54;99843.11;;;19.64;39.80
37066;BME280;22981;43.080;25.550;2024-03-17T11:20:23;99842.32;;;19.79;39.39
37066;BME280;22981;43.080;25.550;2024-03-17T11:22:53;99852.91;;;19.88;39.62
37066;BME280;22981;43.080;25.550;2024-03-17T11:27:53;99845.92;;;19.04;40.12
37066;BME280;22981;43.080;25.550;2024-03-17T11:38:56;99825.39;;;19.44;39.98
37066;BME280;22981;43.080;25.550;2024-03-17T11:47:03;99819.48;;;19.85;38.76
37066;BME280;22981;43.080;25.550;2024-03-17T11:49:41;99828.45;;;19.81;38.58
37066;BME280;22981;43.080;25.550;2024-03-17T11:52:12;99819.78;;;19.79;38.59
37066;BME280;22981;43.080;25.550;2024-03-17T11:54:44;99817.85;;;19.82;38.43
37066;BME280;22981;43.080;25.550;2024-03-17T11:57:20;99819.75;;;19.73;38.13
37066;BME280;22981;43.080;25.550;2024-03-17T11:59:51;99812.42;;;19.64;37.94
37066;BME280;22981;43.080;25.550;2024-03-17T12:02:30;99813.23;;;19.69;37.94
37066;BME280;22981;43.080;25.550;2024-03-17T12:05:00;99802.91;;;19.87;38.10
37066;BME280;22981;43.080;25.550;2024-03-17T12:07:28;99804.52;;;20.03;37.73
37066;BME280;22981;43.080;25.550;2024-03-17T12:09:57;99806.45;;;20.00;37.62
37066;BME280;22981;43.080;25.550;2024-03-17T12:12:26;99804.01;;;19.96;37.71
37066;BME280;22981;43.080;25.550;2024-03-17T12:15:05;99802.07;;;20.04;37.35
37066;BME280;22981;43.080;25.550;2024-03-17T12:17:32;99798.55;;;20.06;37.01
37066;BME280;22981;43.080;25.550;2024-03-17T12:20:00;99796.38;;;19.83;37.01
37066;BME280;22981;43.080;25.550;2024-03-17T12:22:29;99799.93;;;19.81;37.34
37066;BME280;22981;43.080;25.550;2024-03-17T12:24:58;99796.41;;;19.88;37.13
37066;BME280;22981;43.080;25.550;2024-03-17T12:27:27;99795.58;;;19.97;36.98
37066;BME280;22981;43.080;25.550;2024-03-17T12:29:55;99800.73;;;20.01;36.12
37066;BME280;22981;43.080;25.550;2024-03-17T12:32:24;99801.55;;;19.97;36.22
37066;BME280;22981;43.080;25.550;2024-03-17T12:34:54;99796.11;;;19.87;36.56
37066;BME280;22981;43.080;25.550;2024-03-17T12:37:26;99794.45;;;19.47;36.93
37066;BME280;22981;43.080;25.550;2024-03-17T12:39:55;99789.56;;;19.47;36.94
37066;BME280;22981;43.080;25.550;2024-03-17T12:42:28;99789.60;;;19.65;37.13
37066;BME280;22981;43.080;25.550;2024-03-17T12:44:59;99787.70;;;19.81;36.50
37066;BME280;22981;43.080;25.550;2024-03-17T12:47:33;99791.25;;;19.84;36.19
37066;BME280;22981;43.080;25.550;2024-03-17T12:50:05;99783.88;;;19.87;36.18
37066;BME280;22981;43.080;25.550;2024-03-17T12:52:33;99782.81;;;19.85;36.20
37066;BME280;22981;43.080;25.550;2024-03-17T12:55:03;99783.64;;;19.75;36.29
37066;BME280;22981;43.080;25.550;2024-03-17T13:01:03;99784.45;;;19.71;35.93
37066;BME280;22981;43.080;25.550;2024-03-17T13:03:35;99779.83;;;19.69;35.21
37066;BME280;22981;43.080;25.550;2024-03-17T13:06:04;99776.80;;;19.47;35.00
37066;BME280;22981;43.080;25.550;2024-03-17T13:08:36;99775.95;;;19.16;35.52
37066;BME280;22981;43.080;25.550;2024-03-17T13:11:05;99777.85;;;19.16;36.01
37066;BME280;22981;43.080;25.550;2024-03-17T13:13:35;99764.84;;;19.31;35.83
37066;BME280;22981;43.080;25.550;2024-03-17T13:16:02;99768.92;;;19.38;35.65
37066;BME280;22981;43.080;25.550;2024-03-17T13:18:30;99757.27;;;19.45;35.31
37066;BME280;22981;43.080;25.550;2024-03-17T13:20:57;99757.80;;;19.50;35.27
37066;BME280;22981;43.080;25.550;2024-03-17T13:23:26;99757.26;;;19.50;35.03
37066;BME280;22981;43.080;25.550;2024-03-17T13:25:55;99746.41;;;19.53;34.03
37066;BME280;22981;43.080;25.550;2024-03-17T13:28:23;99757.28;;;19.61;33.60